| time (UTC) | temp C | wind direction | speed KPH | gust KPH | rain 1hr cm | rain 24hr cm | rain mn cm | humidity % | barometer mb |
| 20260508064513 | 11 | 321 | 0.0 | 0.0 | 0.03 | 1.32 | 0.03 | 97 | 1014.5 |
| 20260508063007 | 11 | 321 | 0.0 | 0.0 | 0.03 | 1.32 | 0.03 | 97 | 1014.4 |
| 20260508061506 | 11 | 321 | 0.0 | 0.0 | 0.03 | 1.32 | 0.03 | 97 | 1014.3 |
| 20260508060007 | 11 | 321 | 0.0 | 0.0 | 0.00 | 1.30 | 0.00 | 97 | 1014.5 |
| 20260508054505 | 11 | 321 | 0.0 | 0.0 | 0.00 | 1.32 | 0.00 | 97 | 1014.3 |
| 20260508053004 | 11 | 321 | 0.0 | 0.0 | 0.00 | 1.32 | 0.00 | 97 | 1014.3 |
| 20260508051501 | 11 | 321 | 0.0 | 0.0 | 0.00 | 1.32 | 0.00 | 97 | 1014.3 |
| 20260508050059 | 12 | 321 | 0.0 | 0.0 | 0.00 | 1.32 | 0.00 | 97 | 1014.2 |
| 20260508044559 | 12 | 321 | 0.0 | 0.0 | 0.00 | 1.70 | 0.00 | 97 | 1014.3 |
| 20260508043104 | 12 | 321 | 0.0 | 0.0 | 0.00 | 1.70 | 0.00 | 97 | 1014.1 |
| 20260508041615 | 12 | 321 | 0.0 | 0.0 | 0.00 | 1.70 | 0.00 | 97 | 1014.2 |
| 20260508040108 | 12 | 321 | 0.0 | 0.0 | 0.00 | 1.70 | 0.00 | 97 | 1014.1 |
| 20260508034553 | 12 | 321 | 0.0 | 0.0 | 0.00 | 1.85 | 1.70 | 97 | 1013.9 |
| 20260508033052 | 12 | 321 | 0.0 | 0.0 | 0.00 | 1.85 | 1.70 | 96 | 1013.7 |
| 20260508031554 | 12 | 321 | 0.0 | 0.0 | 0.00 | 1.85 | 1.70 | 96 | 1013.3 |
| 20260508030051 | 12 | 321 | 0.0 | 0.0 | 0.00 | 1.85 | 1.70 | 96 | 1013.5 |
| 20260508024604 | 12 | 321 | 0.0 | 0.0 | 0.00 | 1.85 | 1.70 | 96 | 1013.2 |
| 20260508023051 | 12 | 321 | 0.0 | 0.0 | 0.00 | 1.85 | 1.70 | 96 | 1013.2 |
| 20260508021548 | 12 | 321 | 0.0 | 0.0 | 0.00 | 1.85 | 1.70 | 96 | 1012.9 |
| 20260508020050 | 12 | 70 | 0.0 | 0.0 | 0.00 | 1.85 | 1.70 | 96 | 1012.9 |
| 20260508014547 | 12 | 70 | 0.0 | 0.0 | 0.00 | 1.85 | 1.70 | 96 | 1012.9 |
| 20260508013045 | 12 | 70 | 0.0 | 0.0 | 0.00 | 1.85 | 1.70 | 96 | 1012.5 |
| 20260508011553 | 12 | 331 | 0.0 | 4.8 | 0.03 | 1.85 | 1.70 | 96 | 1012.0 |
| 20260508010043 | 12 | 355 | 0.0 | 3.2 | 0.03 | 1.85 | 1.70 | 96 | 1011.8 |
| 20260508004544 | 12 | 294 | 0.0 | 1.6 | 0.03 | 1.85 | 1.70 | 95 | 1012.1 |
| 20260508003042 | 12 | 358 | 0.0 | 1.6 | 0.03 | 1.85 | 1.70 | 95 | 1011.7 |
| 20260508001542 | 12 | 125 | 0.0 | 3.2 | 0.00 | 1.83 | 1.68 | 95 | 1012.2 |
| 20260508000041 | 12 | 290 | 0.0 | 3.2 | 0.00 | 1.83 | 1.68 | 95 | 1011.6 |
| 20260507234541 | 12 | 10 | 0.0 | 4.8 | 0.00 | 1.83 | 1.68 | 95 | 1010.9 |
| 20260507233055 | 12 | 218 | 0.0 | 3.2 | 0.00 | 1.83 | 1.68 | 95 | 1010.8 |
| 20260507231540 | 12 | 331 | 0.0 | 8.0 | 0.00 | 1.83 | 1.68 | 95 | 1010.7 |
| 20260507230040 | 12 | 330 | 0.0 | 9.7 | 0.00 | 1.83 | 1.68 | 95 | 1010.8 |
| 20260507224546 | 12 | 272 | 0.0 | 6.4 | 0.00 | 1.83 | 1.68 | 95 | 1010.8 |
| 20260507223038 | 12 | 9 | 0.0 | 8.0 | 0.00 | 1.83 | 1.68 | 96 | 1010.2 |
| 20260507221537 | 12 | 2 | 0.0 | 6.4 | 0.00 | 1.83 | 1.68 | 96 | 1010.2 |
| 20260507220036 | 12 | 299 | 0.0 | 4.8 | 0.00 | 1.83 | 1.68 | 96 | 1010.4 |
| 20260507214536 | 12 | 12 | 0.0 | 4.8 | 0.00 | 1.83 | 1.68 | 96 | 1010.6 |
| 20260507213040 | 12 | 29 | 0.0 | 12.9 | 0.00 | 1.83 | 1.68 | 96 | 1010.5 |
| 20260507211535 | 12 | 285 | 3.2 | 12.9 | 0.00 | 1.83 | 1.68 | 96 | 1010.3 |
| 20260507210036 | 12 | 2 | 1.6 | 17.7 | 0.00 | 1.83 | 1.68 | 97 | 1010.2 |
| 20260507204532 | 12 | 307 | 3.2 | 17.7 | 0.00 | 1.83 | 1.68 | 97 | 1009.7 |
| 20260507203032 | 13 | 284 | 0.0 | 9.7 | 0.00 | 1.83 | 1.68 | 97 | 1009.7 |
| 20260507201528 | 13 | 352 | 0.0 | 6.4 | 0.00 | 1.83 | 1.68 | 97 | 1009.4 |
| 20260507200026 | 13 | 92 | 0.0 | 9.7 | 0.00 | 1.83 | 1.68 | 97 | 1009.5 |
| 20260507194536 | 13 | 341 | 0.0 | 14.5 | 0.00 | 2.11 | 1.68 | 97 | 1009.5 |
| 20260507193028 | 13 | 288 | 1.6 | 12.9 | 0.03 | 2.11 | 1.68 | 97 | 1009.5 |
| 20260507191531 | 13 | 65 | 0.0 | 9.7 | 0.03 | 2.11 | 1.68 | 97 | 1009.3 |
| 20260507190022 | 14 | 294 | 0.0 | 6.4 | 0.03 | 2.11 | 1.68 | 97 | 1009.7 |
| 20260507184520 | 14 | 295 | 3.2 | 12.9 | 0.03 | 2.24 | 1.68 | 97 | 1009.0 |
| 20260507183033 | 15 | 32 | 0.0 | 9.7 | 0.00 | 2.21 | 1.65 | 97 | 1009.5 |
| 20260507181515 | 15 | 279 | 0.0 | 8.0 | 0.00 | 2.21 | 1.65 | 97 | 1009.0 |
| 20260507180026 | 15 | 345 | 4.8 | 19.3 | 0.00 | 2.21 | 1.65 | 95 | 1009.0 |
| 20260507174509 | 18 | 303 | 3.2 | 9.7 | 0.00 | 2.21 | 1.65 | 94 | 1009.2 |
| 20260507173009 | 20 | 263 | 0.0 | 0.0 | 0.03 | 2.21 | 1.65 | 97 | 1009.1 |
| 20260507171507 | 20 | 278 | 0.0 | 0.0 | 0.03 | 2.21 | 1.65 | 98 | 1008.4 |
| 20260507170005 | 20 | 268 | 0.0 | 0.0 | 0.10 | 2.21 | 1.65 | 98 | 1008.2 |
| 20260507164504 | 20 | 269 | 0.0 | 0.0 | 0.10 | 2.21 | 1.65 | 98 | 1008.3 |
| 20260507163002 | 20 | 269 | 0.0 | 0.0 | 0.10 | 2.18 | 1.63 | 98 | 1008.9 |
| 20260507161606 | 20 | 279 | 0.0 | 0.0 | 0.10 | 2.18 | 1.63 | 98 | 1009.7 |
| 20260507160059 | 20 | 280 | 0.0 | 0.0 | 0.03 | 2.11 | 1.55 | 98 | 1010.0 |
| 20260507154600 | 20 | 280 | 0.0 | 0.0 | 0.05 | 2.11 | 1.55 | 98 | 1009.9 |
| 20260507153101 | 20 | 67 | 0.0 | 0.0 | 0.08 | 2.08 | 1.52 | 98 | 1009.1 |
| 20260507151600 | 20 | 50 | 0.0 | 0.0 | 0.10 | 2.08 | 1.52 | 98 | 1009.5 |
| 20260507150059 | 19 | 45 | 0.0 | 0.0 | 0.15 | 2.08 | 1.52 | 98 | 1009.8 |
| 20260507144556 | 19 | 45 | 0.0 | 0.0 | 0.25 | 2.06 | 1.50 | 98 | 1010.0 |
| 20260507143049 | 19 | 45 | 0.0 | 0.0 | 0.30 | 2.01 | 1.42 | 98 | 1010.1 |
| 20260507141612 | 19 | 45 | 0.0 | 0.0 | 0.36 | 1.98 | 1.42 | 98 | 1010.0 |
| 20260507140048 | 18 | 45 | 0.0 | 0.0 | 0.33 | 1.93 | 1.37 | 98 | 1010.2 |
| 20260507134547 | 18 | 45 | 0.0 | 0.0 | 0.36 | 1.80 | 1.24 | 98 | 1010.3 |
| 20260507133047 | 18 | 45 | 0.0 | 0.0 | 0.25 | 1.70 | 1.14 | 98 | 1010.5 |
| 20260507131545 | 18 | 45 | 0.0 | 0.0 | 0.20 | 1.63 | 1.07 | 98 | 1010.5 |
| 20260507130044 | 18 | 45 | 0.0 | 0.0 | 0.18 | 1.60 | 1.04 | 98 | 1010.3 |
| 20260507124544 | 18 | 65 | 0.0 | 0.0 | 0.03 | 1.42 | 0.89 | 98 | 1010.5 |
| 20260507123045 | 18 | 65 | 0.0 | 0.0 | 0.03 | 1.42 | 0.89 | 98 | 1010.4 |
| 20260507121544 | 18 | 65 | 0.0 | 0.0 | 0.00 | 1.42 | 0.86 | 98 | 1010.2 |
| 20260507120048 | 18 | 65 | 0.0 | 0.0 | 0.00 | 1.42 | 0.86 | 98 | 1010.5 |
| 20260507114543 | 18 | 65 | 0.0 | 1.6 | 0.03 | 1.42 | 0.86 | 98 | 1010.5 |
| 20260507113047 | 18 | 73 | 0.0 | 0.0 | 0.03 | 1.42 | 0.86 | 98 | 1010.8 |
| 20260507111540 | 18 | 73 | 0.0 | 0.0 | 0.03 | 1.42 | 0.86 | 98 | 1010.8 |
| 20260507110039 | 18 | 73 | 0.0 | 0.0 | 0.00 | 0.00 | 0.86 | 98 | 1010.9 |
| 20260507104538 | 18 | 73 | 0.0 | 0.0 | 0.03 | 1.40 | 0.84 | 98 | 1010.4 |
| 20260507103038 | 18 | 118 | 0.0 | 0.0 | 0.05 | 1.40 | 0.84 | 98 | 1010.4 |
| 20260507101537 | 18 | 117 | 0.0 | 0.0 | 0.05 | 1.40 | 0.84 | 98 | 1010.4 |
| 20260507100039 | 18 | 117 | 0.0 | 0.0 | 0.05 | 1.40 | 0.84 | 98 | 1010.6 |
| 20260507094537 | 18 | 117 | 0.0 | 0.0 | 0.03 | 1.35 | 0.79 | 98 | 1010.5 |
| 20260507093036 | 17 | 117 | 0.0 | 0.0 | 0.05 | 1.35 | 0.79 | 98 | 1010.5 |
| 20260507091535 | 17 | 117 | 0.0 | 0.0 | 0.15 | 1.35 | 0.79 | 98 | 1010.3 |
| 20260507090034 | 17 | 117 | 0.0 | 0.0 | 0.20 | 1.35 | 0.79 | 97 | 1010.5 |
| 20260507084534 | 17 | 117 | 0.0 | 0.0 | 0.23 | 1.30 | 0.71 | 97 | 1010.6 |
| 20260507083034 | 17 | 117 | 0.0 | 0.0 | 0.23 | 1.30 | 0.71 | 97 | 1010.8 |
| 20260507081542 | 17 | 77 | 0.0 | 0.0 | 0.15 | 1.19 | 0.64 | 97 | 1011.4 |
| 20260507080036 | 17 | 77 | 0.0 | 0.0 | 0.18 | 1.14 | 0.58 | 97 | 1011.6 |
| 20260507074534 | 17 | 77 | 0.0 | 0.0 | 0.10 | 1.07 | 0.51 | 97 | 1010.9 |
| 20260507073029 | 17 | 77 | 0.0 | 0.0 | 0.10 | 1.07 | 0.51 | 97 | 1011.7 |
| 20260507071534 | 17 | 77 | 0.0 | 0.0 | 0.08 | 1.04 | 0.48 | 97 | 1011.9 |
| 20260507070033 | 17 | 77 | 0.0 | 0.0 | 0.00 | 0.97 | 0.41 | 97 | 1011.4 |